Terminal Aerodrome Forecast
Issued by NWS La Crosse, WI

Home | Current Version | Previous Version | Text Only | Print | Product List | Glossary On
Versions: 1 2 3 4 5 6 7 8 9 10 11 12 13 14 15 16 17 18 19 20 21 22 23 24 25 26 27 28 29 30 31 32 33 34 35 36 37 38 39 40 41
000
FTUS43 KARX 252335
TAFRST
TAF
KRST 252335Z 2600/2624 06012KT 6SM -RA BR OVC008
      TEMPO 2600/2601 OVC010
     FM260400 06009KT 3SM BR OVC003
     FM260800 04007KT 1 1/2SM BR OVC003
     FM261600 02007KT 3SM BR OVC003
     FM262100 36007KT 6SM BR OVC008=

USA.gov is the U.S. government's official web portal to all federal, state and local government web resources and services.